sensor_id;sensor_type;location;lat;lon;timestamp;P1;durP1;ratioP1;P2;durP2;ratioP2
21593;SDS011;10959;51.328;7.322;2023-11-19T00:02:07;1.60;;;1.50;;
21593;SDS011;10959;51.328;7.322;2023-11-19T00:04:36;1.53;;;1.43;;
21593;SDS011;10959;51.328;7.322;2023-11-19T00:07:04;2.13;;;1.90;;
21593;SDS011;10959;51.328;7.322;2023-11-19T00:09:31;1.40;;;1.30;;
21593;SDS011;10959;51.328;7.322;2023-11-19T00:11:58;2.23;;;1.30;;
21593;SDS011;10959;51.328;7.322;2023-11-19T00:14:25;1.43;;;1.33;;
21593;SDS011;10959;51.328;7.322;2023-11-19T00:16:55;1.53;;;1.43;;
21593;SDS011;10959;51.328;7.322;2023-11-19T00:19:22;1.77;;;1.67;;
21593;SDS011;10959;51.328;7.322;2023-11-19T00:21:48;2.03;;;1.93;;
21593;SDS011;10959;51.328;7.322;2023-11-19T00:24:15;2.00;;;1.90;;
21593;SDS011;10959;51.328;7.322;2023-11-19T00:26:42;1.67;;;1.57;;
21593;SDS011;10959;51.328;7.322;2023-11-19T00:29:09;2.50;;;2.03;;
21593;SDS011;10959;51.328;7.322;2023-11-19T00:31:36;2.33;;;1.80;;
21593;SDS011;10959;51.328;7.322;2023-11-19T00:34:04;2.23;;;2.03;;
21593;SDS011;10959;51.328;7.322;2023-11-19T00:36:31;2.67;;;2.33;;
21593;SDS011;10959;51.328;7.322;2023-11-19T00:38:58;2.87;;;2.63;;
21593;SDS011;10959;51.328;7.322;2023-11-19T00:41:24;2.73;;;2.47;;
21593;SDS011;10959;51.328;7.322;2023-11-19T00:43:51;2.60;;;2.40;;
21593;SDS011;10959;51.328;7.322;2023-11-19T00:46:18;3.47;;;3.17;;
21593;SDS011;10959;51.328;7.322;2023-11-19T00:48:45;3.77;;;3.50;;
21593;SDS011;10959;51.328;7.322;2023-11-19T00:51:13;3.20;;;3.00;;
21593;SDS011;10959;51.328;7.322;2023-11-19T00:53:40;3.40;;;2.97;;
21593;SDS011;10959;51.328;7.322;2023-11-19T00:56:07;3.60;;;3.30;;
21593;SDS011;10959;51.328;7.322;2023-11-19T00:58:33;4.47;;;4.10;;
21593;SDS011;10959;51.328;7.322;2023-11-19T01:01:00;3.23;;;3.00;;
21593;SDS011;10959;51.328;7.322;2023-11-19T01:03:26;5.60;;;5.13;;
21593;SDS011;10959;51.328;7.322;2023-11-19T01:05:53;4.30;;;3.73;;
21593;SDS011;10959;51.328;7.322;2023-11-19T01:08:21;3.43;;;3.23;;
21593;SDS011;10959;51.328;7.322;2023-11-19T01:10:49;5.93;;;5.37;;
21593;SDS011;10959;51.328;7.322;2023-11-19T01:13:16;3.60;;;3.30;;
21593;SDS011;10959;51.328;7.322;2023-11-19T01:15:42;4.70;;;4.13;;
21593;SDS011;10959;51.328;7.322;2023-11-19T01:18:09;4.80;;;4.03;;
21593;SDS011;10959;51.328;7.322;2023-11-19T01:20:36;4.47;;;4.10;;
21593;SDS011;10959;51.328;7.322;2023-11-19T01:23:02;5.33;;;4.90;;
21593;SDS011;10959;51.328;7.322;2023-11-19T01:25:30;4.37;;;4.07;;
21593;SDS011;10959;51.328;7.322;2023-11-19T01:27:56;5.10;;;4.70;;
21593;SDS011;10959;51.328;7.322;2023-11-19T01:30:23;5.70;;;5.30;;
21593;SDS011;10959;51.328;7.322;2023-11-19T01:32:50;4.57;;;4.17;;
21593;SDS011;10959;51.328;7.322;2023-11-19T01:35:17;4.13;;;3.83;;
21593;SDS011;10959;51.328;7.322;2023-11-19T01:37:43;3.03;;;2.83;;
21593;SDS011;10959;51.328;7.322;2023-11-19T01:40:10;3.27;;;3.03;;
21593;SDS011;10959;51.328;7.322;2023-11-19T01:42:39;2.90;;;2.70;;
21593;SDS011;10959;51.328;7.322;2023-11-19T01:45:07;2.87;;;2.67;;
21593;SDS011;10959;51.328;7.322;2023-11-19T01:47:34;2.83;;;2.63;;
21593;SDS011;10959;51.328;7.322;2023-11-19T01:50:01;4.67;;;3.00;;
21593;SDS011;10959;51.328;7.322;2023-11-19T01:52:31;2.77;;;2.10;;
21593;SDS011;10959;51.328;7.322;2023-11-19T01:55:00;3.80;;;3.23;;
21593;SDS011;10959;51.328;7.322;2023-11-19T01:57:27;2.80;;;2.60;;
21593;SDS011;10959;51.328;7.322;2023-11-19T01:59:55;3.00;;;2.80;;
21593;SDS011;10959;51.328;7.322;2023-11-19T02:02:22;4.33;;;3.97;;
21593;SDS011;10959;51.328;7.322;2023-11-19T02:04:49;3.70;;;3.40;;
21593;SDS011;10959;51.328;7.322;2023-11-19T02:07:17;5.00;;;4.60;;
21593;SDS011;10959;51.328;7.322;2023-11-19T02:09:43;5.87;;;4.13;;
21593;SDS011;10959;51.328;7.322;2023-11-19T02:12:10;3.40;;;3.10;;
21593;SDS011;10959;51.328;7.322;2023-11-19T02:14:37;4.70;;;4.30;;
21593;SDS011;10959;51.328;7.322;2023-11-19T02:17:05;3.50;;;3.20;;
21593;SDS011;10959;51.328;7.322;2023-11-19T02:19:32;4.80;;;3.90;;
21593;SDS011;10959;51.328;7.322;2023-11-19T02:21:58;3.33;;;3.00;;
21593;SDS011;10959;51.328;7.322;2023-11-19T02:24:26;5.50;;;2.93;;
21593;SDS011;10959;51.328;7.322;2023-11-19T02:26:58;3.10;;;2.23;;
21593;SDS011;10959;51.328;7.322;2023-11-19T02:29:32;4.50;;;2.33;;
21593;SDS011;10959;51.328;7.322;2023-11-19T02:32:00;5.60;;;2.50;;
21593;SDS011;10959;51.328;7.322;2023-11-19T02:34:28;5.70;;;2.93;;
21593;SDS011;10959;51.328;7.322;2023-11-19T02:36:55;5.50;;;2.57;;
21593;SDS011;10959;51.328;7.322;2023-11-19T02:39:21;5.47;;;2.30;;
21593;SDS011;10959;51.328;7.322;2023-11-19T02:41:47;2.90;;;2.53;;
21593;SDS011;10959;51.328;7.322;2023-11-19T02:44:16;3.37;;;2.40;;
21593;SDS011;10959;51.328;7.322;2023-11-19T02:46:43;5.63;;;2.70;;
21593;SDS011;10959;51.328;7.322;2023-11-19T02:49:10;6.83;;;2.43;;
21593;SDS011;10959;51.328;7.322;2023-11-19T02:51:37;6.33;;;3.30;;
21593;SDS011;10959;51.328;7.322;2023-11-19T02:54:03;4.50;;;2.70;;
21593;SDS011;10959;51.328;7.322;2023-11-19T02:56:30;5.70;;;2.80;;
21593;SDS011;10959;51.328;7.322;2023-11-19T02:59:00;6.17;;;2.60;;
21593;SDS011;10959;51.328;7.322;2023-11-19T03:01:32;8.83;;;3.10;;
21593;SDS011;10959;51.328;7.322;2023-11-19T03:04:02;10.00;;;3.90;;
21593;SDS011;10959;51.328;7.322;2023-11-19T03:06:29;9.63;;;3.40;;
21593;SDS011;10959;51.328;7.322;2023-11-19T03:08:57;5.30;;;3.00;;
21593;SDS011;10959;51.328;7.322;2023-11-19T03:11:23;6.57;;;3.07;;
21593;SDS011;10959;51.328;7.322;2023-11-19T03:13:50;5.37;;;3.10;;
21593;SDS011;10959;51.328;7.322;2023-11-19T03:16:17;8.10;;;3.53;;
21593;SDS011;10959;51.328;7.322;2023-11-19T03:18:43;10.00;;;3.67;;
21593;SDS011;10959;51.328;7.322;2023-11-19T03:21:11;7.67;;;3.90;;
21593;SDS011;10959;51.328;7.322;2023-11-19T03:23:37;8.43;;;3.10;;
21593;SDS011;10959;51.328;7.322;2023-11-19T03:26:05;10.47;;;3.53;;
21593;SDS011;10959;51.328;7.322;2023-11-19T03:28:31;9.83;;;3.47;;
21593;SDS011;10959;51.328;7.322;2023-11-19T03:30:58;10.30;;;3.43;;
21593;SDS011;10959;51.328;7.322;2023-11-19T03:33:24;9.60;;;3.27;;
21593;SDS011;10959;51.328;7.322;2023-11-19T03:35:52;8.23;;;3.67;;
21593;SDS011;10959;51.328;7.322;2023-11-19T03:38:20;8.63;;;3.40;;
21593;SDS011;10959;51.328;7.322;2023-11-19T03:40:47;12.77;;;3.53;;
21593;SDS011;10959;51.328;7.322;2023-11-19T03:43:14;8.47;;;3.30;;
21593;SDS011;10959;51.328;7.322;2023-11-19T03:45:40;12.60;;;3.20;;
21593;SDS011;10959;51.328;7.322;2023-11-19T03:48:07;11.50;;;3.50;;
21593;SDS011;10959;51.328;7.322;2023-11-19T03:50:33;7.53;;;3.40;;
21593;SDS011;10959;51.328;7.322;2023-11-19T03:53:00;11.67;;;3.13;;
21593;SDS011;10959;51.328;7.322;2023-11-19T03:55:29;13.73;;;3.67;;
21593;SDS011;10959;51.328;7.322;2023-11-19T03:57:56;8.10;;;3.20;;
21593;SDS011;10959;51.328;7.322;2023-11-19T04:00:22;8.77;;;3.50;;
21593;SDS011;10959;51.328;7.322;2023-11-19T04:02:49;10.87;;;3.80;;
21593;SDS011;10959;51.328;7.322;2023-11-19T04:05:15;11.10;;;3.67;;
21593;SDS011;10959;51.328;7.322;2023-11-19T04:07:43;10.17;;;2.90;;
21593;SDS011;10959;51.328;7.322;2023-11-19T04:10:10;11.53;;;3.33;;
21593;SDS011;10959;51.328;7.322;2023-11-19T04:12:38;12.43;;;3.53;;
21593;SDS011;10959;51.328;7.322;2023-11-19T04:15:05;6.67;;;3.43;;
21593;SDS011;10959;51.328;7.322;2023-11-19T04:17:32;9.77;;;3.23;;
21593;SDS011;10959;51.328;7.322;2023-11-19T04:19:59;12.23;;;3.30;;
21593;SDS011;10959;51.328;7.322;2023-11-19T04:22:26;10.67;;;3.13;;
21593;SDS011;10959;51.328;7.322;2023-11-19T04:24:52;7.90;;;2.80;;
21593;SDS011;10959;51.328;7.322;2023-11-19T04:27:19;9.93;;;3.50;;
21593;SDS011;10959;51.328;7.322;2023-11-19T04:29:46;14.63;;;3.47;;
21593;SDS011;10959;51.328;7.322;2023-11-19T04:32:15;16.83;;;3.83;;
21593;SDS011;10959;51.328;7.322;2023-11-19T04:34:42;12.63;;;4.07;;
21593;SDS011;10959;51.328;7.322;2023-11-19T04:37:08;10.57;;;3.30;;
21593;SDS011;10959;51.328;7.322;2023-11-19T04:39:35;12.90;;;4.03;;
21593;SDS011;10959;51.328;7.322;2023-11-19T04:42:02;15.83;;;3.80;;
21593;SDS011;10959;51.328;7.322;2023-11-19T04:44:31;13.70;;;3.97;;
21593;SDS011;10959;51.328;7.322;2023-11-19T04:46:59;13.47;;;3.77;;
21593;SDS011;10959;51.328;7.322;2023-11-19T04:49:25;14.23;;;3.63;;
21593;SDS011;10959;51.328;7.322;2023-11-19T04:51:52;12.87;;;3.40;;
21593;SDS011;10959;51.328;7.322;2023-11-19T04:54:19;19.23;;;4.20;;
21593;SDS011;10959;51.328;7.322;2023-11-19T04:56:45;14.77;;;3.80;;
21593;SDS011;10959;51.328;7.322;2023-11-19T04:59:12;15.30;;;3.77;;
21593;SDS011;10959;51.328;7.322;2023-11-19T05:01:39;16.23;;;4.13;;
21593;SDS011;10959;51.328;7.322;2023-11-19T05:04:07;16.93;;;4.13;;
21593;SDS011;10959;51.328;7.322;2023-11-19T05:06:34;15.43;;;4.10;;
21593;SDS011;10959;51.328;7.322;2023-11-19T05:09:00;19.77;;;5.00;;
21593;SDS011;10959;51.328;7.322;2023-11-19T05:11:29;14.50;;;4.00;;
21593;SDS011;10959;51.328;7.322;2023-11-19T05:13:56;12.70;;;4.00;;
21593;SDS011;10959;51.328;7.322;2023-11-19T05:16:22;13.17;;;3.80;;
21593;SDS011;10959;51.328;7.322;2023-11-19T05:18:49;17.27;;;4.53;;
21593;SDS011;10959;51.328;7.322;2023-11-19T05:21:17;15.60;;;3.80;;
21593;SDS011;10959;51.328;7.322;2023-11-19T05:23:43;20.87;;;4.57;;
21593;SDS011;10959;51.328;7.322;2023-11-19T05:26:16;12.30;;;3.93;;
21593;SDS011;10959;51.328;7.322;2023-11-19T05:28:43;12.83;;;3.30;;
21593;SDS011;10959;51.328;7.322;2023-11-19T05:31:10;16.83;;;3.83;;
21593;SDS011;10959;51.328;7.322;2023-11-19T05:33:36;17.53;;;4.97;;
21593;SDS011;10959;51.328;7.322;2023-11-19T05:36:03;22.33;;;4.33;;
21593;SDS011;10959;51.328;7.322;2023-11-19T05:38:31;12.33;;;3.73;;
21593;SDS011;10959;51.328;7.322;2023-11-19T05:40:58;19.13;;;4.03;;
21593;SDS011;10959;51.328;7.322;2023-11-19T05:43:24;17.13;;;3.80;;
21593;SDS011;10959;51.328;7.322;2023-11-19T05:45:51;12.07;;;3.60;;
21593;SDS011;10959;51.328;7.322;2023-11-19T05:48:17;12.90;;;4.17;;
21593;SDS011;10959;51.328;7.322;2023-11-19T05:50:44;19.33;;;4.47;;
21593;SDS011;10959;51.328;7.322;2023-11-19T05:53:11;18.23;;;4.57;;
21593;SDS011;10959;51.328;7.322;2023-11-19T05:55:41;15.37;;;4.33;;
21593;SDS011;10959;51.328;7.322;2023-11-19T05:58:13;14.87;;;4.37;;
21593;SDS011;10959;51.328;7.322;2023-11-19T06:00:40;16.87;;;3.70;;
21593;SDS011;10959;51.328;7.322;2023-11-19T06:03:07;13.83;;;4.33;;
21593;SDS011;10959;51.328;7.322;2023-11-19T06:05:33;19.20;;;4.23;;
21593;SDS011;10959;51.328;7.322;2023-11-19T06:08:00;15.90;;;4.27;;
21593;SDS011;10959;51.328;7.322;2023-11-19T06:10:26;14.83;;;3.70;;
21593;SDS011;10959;51.328;7.322;2023-11-19T06:12:57;15.17;;;4.03;;
21593;SDS011;10959;51.328;7.322;2023-11-19T06:15:24;15.27;;;4.23;;
21593;SDS011;10959;51.328;7.322;2023-11-19T06:17:51;16.20;;;3.87;;
21593;SDS011;10959;51.328;7.322;2023-11-19T06:20:17;17.30;;;4.13;;
21593;SDS011;10959;51.328;7.322;2023-11-19T06:22:44;21.07;;;5.03;;
21593;SDS011;10959;51.328;7.322;2023-11-19T06:25:11;15.30;;;3.87;;
21593;SDS011;10959;51.328;7.322;2023-11-19T06:27:39;14.70;;;3.83;;
21593;SDS011;10959;51.328;7.322;2023-11-19T06:30:08;17.00;;;4.43;;
21593;SDS011;10959;51.328;7.322;2023-11-19T06:32:35;13.57;;;3.93;;
21593;SDS011;10959;51.328;7.322;2023-11-19T06:35:01;17.90;;;3.63;;
21593;SDS011;10959;51.328;7.322;2023-11-19T06:37:29;17.47;;;4.30;;
21593;SDS011;10959;51.328;7.322;2023-11-19T06:39:56;18.20;;;4.27;;
21593;SDS011;10959;51.328;7.322;2023-11-19T06:42:22;9.20;;;3.63;;
21593;SDS011;10959;51.328;7.322;2023-11-19T06:44:49;14.27;;;3.90;;
21593;SDS011;10959;51.328;7.322;2023-11-19T06:47:17;17.13;;;4.33;;
21593;SDS011;10959;51.328;7.322;2023-11-19T06:49:44;12.23;;;3.83;;
21593;SDS011;10959;51.328;7.322;2023-11-19T06:52:11;16.50;;;3.53;;
21593;SDS011;10959;51.328;7.322;2023-11-19T06:54:37;15.50;;;4.43;;
21593;SDS011;10959;51.328;7.322;2023-11-19T06:57:05;9.90;;;3.67;;
21593;SDS011;10959;51.328;7.322;2023-11-19T06:59:31;14.70;;;3.70;;
21593;SDS011;10959;51.328;7.322;2023-11-19T07:01:57;13.57;;;3.70;;
21593;SDS011;10959;51.328;7.322;2023-11-19T07:04:25;17.23;;;3.70;;
21593;SDS011;10959;51.328;7.322;2023-11-19T07:06:52;19.00;;;4.43;;
21593;SDS011;10959;51.328;7.322;2023-11-19T07:09:19;14.17;;;3.80;;
21593;SDS011;10959;51.328;7.322;2023-11-19T07:11:46;14.83;;;3.97;;
21593;SDS011;10959;51.328;7.322;2023-11-19T07:14:12;13.33;;;3.80;;
21593;SDS011;10959;51.328;7.322;2023-11-19T07:16:39;18.77;;;4.70;;
21593;SDS011;10959;51.328;7.322;2023-11-19T07:19:05;14.30;;;3.87;;
21593;SDS011;10959;51.328;7.322;2023-11-19T07:21:33;20.63;;;4.77;;
21593;SDS011;10959;51.328;7.322;2023-11-19T07:24:04;19.97;;;4.47;;
21593;SDS011;10959;51.328;7.322;2023-11-19T07:26:32;20.27;;;4.33;;
21593;SDS011;10959;51.328;7.322;2023-11-19T07:28:58;20.27;;;5.03;;
21593;SDS011;10959;51.328;7.322;2023-11-19T07:31:26;19.90;;;4.97;;
21593;SDS011;10959;51.328;7.322;2023-11-19T07:33:52;17.93;;;4.90;;
21593;SDS011;10959;51.328;7.322;2023-11-19T07:36:19;16.47;;;4.33;;
21593;SDS011;10959;51.328;7.322;2023-11-19T07:38:47;14.93;;;4.17;;
21593;SDS011;10959;51.328;7.322;2023-11-19T07:41:15;17.17;;;4.50;;
21593;SDS011;10959;51.328;7.322;2023-11-19T07:43:42;17.73;;;4.37;;
21593;SDS011;10959;51.328;7.322;2023-11-19T07:46:12;13.50;;;4.20;;
21593;SDS011;10959;51.328;7.322;2023-11-19T07:48:40;17.63;;;4.87;;
21593;SDS011;10959;51.328;7.322;2023-11-19T07:51:07;12.03;;;3.67;;
21593;SDS011;10959;51.328;7.322;2023-11-19T07:53:34;16.33;;;4.37;;
21593;SDS011;10959;51.328;7.322;2023-11-19T07:56:04;17.37;;;4.37;;
21593;SDS011;10959;51.328;7.322;2023-11-19T07:58:31;14.07;;;4.00;;
21593;SDS011;10959;51.328;7.322;2023-11-19T08:00:58;13.43;;;4.27;;
21593;SDS011;10959;51.328;7.322;2023-11-19T08:03:24;16.80;;;4.30;;
21593;SDS011;10959;51.328;7.322;2023-11-19T08:05:51;19.93;;;4.40;;
21593;SDS011;10959;51.328;7.322;2023-11-19T08:08:17;15.20;;;4.70;;
21593;SDS011;10959;51.328;7.322;2023-11-19T08:10:44;21.17;;;4.83;;
21593;SDS011;10959;51.328;7.322;2023-11-19T08:13:14;18.77;;;4.87;;
21593;SDS011;10959;51.328;7.322;2023-11-19T08:15:40;19.63;;;5.17;;
21593;SDS011;10959;51.328;7.322;2023-11-19T08:18:07;17.30;;;4.70;;
21593;SDS011;10959;51.328;7.322;2023-11-19T08:20:34;18.93;;;4.40;;
21593;SDS011;10959;51.328;7.322;2023-11-19T08:23:01;20.40;;;4.90;;
21593;SDS011;10959;51.328;7.322;2023-11-19T08:25:28;18.93;;;4.63;;
21593;SDS011;10959;51.328;7.322;2023-11-19T08:27:55;16.53;;;4.90;;
21593;SDS011;10959;51.328;7.322;2023-11-19T08:30:23;18.03;;;5.70;;
21593;SDS011;10959;51.328;7.322;2023-11-19T08:32:49;18.30;;;4.27;;
21593;SDS011;10959;51.328;7.322;2023-11-19T08:35:16;18.53;;;4.43;;
21593;SDS011;10959;51.328;7.322;2023-11-19T08:37:42;16.47;;;5.00;;
21593;SDS011;10959;51.328;7.322;2023-11-19T08:40:11;17.30;;;4.90;;
21593;SDS011;10959;51.328;7.322;2023-11-19T08:42:39;18.33;;;4.50;;
21593;SDS011;10959;51.328;7.322;2023-11-19T08:45:06;15.70;;;4.30;;
21593;SDS011;10959;51.328;7.322;2023-11-19T08:47:36;19.60;;;4.90;;
21593;SDS011;10959;51.328;7.322;2023-11-19T08:50:03;21.67;;;5.50;;
21593;SDS011;10959;51.328;7.322;2023-11-19T08:52:30;18.93;;;5.10;;
21593;SDS011;10959;51.328;7.322;2023-11-19T08:54:57;19.20;;;4.93;;
21593;SDS011;10959;51.328;7.322;2023-11-19T08:57:23;17.20;;;4.93;;
21593;SDS011;10959;51.328;7.322;2023-11-19T08:59:50;18.50;;;4.90;;
21593;SDS011;10959;51.328;7.322;2023-11-19T09:02:16;20.47;;;4.90;;
21593;SDS011;10959;51.328;7.322;2023-11-19T09:04:44;14.10;;;3.80;;
21593;SDS011;10959;51.328;7.322;2023-11-19T09:07:11;21.47;;;4.37;;
21593;SDS011;10959;51.328;7.322;2023-11-19T09:09:37;17.47;;;4.87;;
21593;SDS011;10959;51.328;7.322;2023-11-19T09:12:04;19.70;;;5.00;;
21593;SDS011;10959;51.328;7.322;2023-11-19T09:14:31;19.40;;;4.53;;
21593;SDS011;10959;51.328;7.322;2023-11-19T09:16:58;18.50;;;4.50;;
21593;SDS011;10959;51.328;7.322;2023-11-19T09:19:25;19.73;;;4.97;;
21593;SDS011;10959;51.328;7.322;2023-11-19T09:21:53;13.83;;;4.23;;
21593;SDS011;10959;51.328;7.322;2023-11-19T09:24:19;17.90;;;4.97;;
21593;SDS011;10959;51.328;7.322;2023-11-19T09:26:46;17.77;;;4.73;;
21593;SDS011;10959;51.328;7.322;2023-11-19T09:29:12;18.87;;;5.27;;
21593;SDS011;10959;51.328;7.322;2023-11-19T09:31:39;18.20;;;4.50;;
21593;SDS011;10959;51.328;7.322;2023-11-19T09:34:06;15.13;;;4.43;;
21593;SDS011;10959;51.328;7.322;2023-11-19T09:36:33;19.50;;;4.77;;
21593;SDS011;10959;51.328;7.322;2023-11-19T09:39:00;19.03;;;4.53;;
21593;SDS011;10959;51.328;7.322;2023-11-19T09:41:29;13.13;;;3.77;;
21593;SDS011;10959;51.328;7.322;2023-11-19T09:43:56;19.00;;;4.37;;
21593;SDS011;10959;51.328;7.322;2023-11-19T09:46:23;12.53;;;4.07;;
21593;SDS011;10959;51.328;7.322;2023-11-19T09:48:50;16.87;;;4.53;;
21593;SDS011;10959;51.328;7.322;2023-11-19T09:51:20;14.23;;;4.33;;
21593;SDS011;10959;51.328;7.322;2023-11-19T09:53:46;17.80;;;3.90;;
21593;SDS011;10959;51.328;7.322;2023-11-19T09:56:14;16.37;;;4.90;;
21593;SDS011;10959;51.328;7.322;2023-11-19T09:58:42;18.03;;;4.40;;
21593;SDS011;10959;51.328;7.322;2023-11-19T10:01:08;18.83;;;4.60;;
21593;SDS011;10959;51.328;7.322;2023-11-19T10:03:37;19.00;;;4.77;;
21593;SDS011;10959;51.328;7.322;2023-11-19T10:06:06;20.17;;;5.17;;
21593;SDS011;10959;51.328;7.322;2023-11-19T10:08:33;16.87;;;4.63;;
21593;SDS011;10959;51.328;7.322;2023-11-19T10:10:59;18.27;;;5.17;;
21593;SDS011;10959;51.328;7.322;2023-11-19T10:13:27;19.60;;;4.50;;
21593;SDS011;10959;51.328;7.322;2023-11-19T10:15:55;19.43;;;4.87;;
21593;SDS011;10959;51.328;7.322;2023-11-19T10:18:23;22.23;;;5.37;;
21593;SDS011;10959;51.328;7.322;2023-11-19T10:20:51;18.13;;;4.90;;
21593;SDS011;10959;51.328;7.322;2023-11-19T10:23:18;19.37;;;5.00;;
21593;SDS011;10959;51.328;7.322;2023-11-19T10:25:45;12.67;;;4.27;;
21593;SDS011;10959;51.328;7.322;2023-11-19T10:28:12;18.30;;;5.10;;
21593;SDS011;10959;51.328;7.322;2023-11-19T10:30:43;17.53;;;4.37;;
21593;SDS011;10959;51.328;7.322;2023-11-19T10:33:10;19.47;;;4.90;;
21593;SDS011;10959;51.328;7.322;2023-11-19T10:35:50;19.57;;;4.87;;
21593;SDS011;10959;51.328;7.322;2023-11-19T10:38:18;17.40;;;4.80;;
21593;SDS011;10959;51.328;7.322;2023-11-19T10:40:44;14.30;;;4.07;;
21593;SDS011;10959;51.328;7.322;2023-11-19T10:43:11;26.20;;;5.20;;
21593;SDS011;10959;51.328;7.322;2023-11-19T10:45:39;21.07;;;5.23;;
21593;SDS011;10959;51.328;7.322;2023-11-19T10:48:07;17.37;;;4.63;;
21593;SDS011;10959;51.328;7.322;2023-11-19T10:50:34;18.50;;;4.90;;
21593;SDS011;10959;51.328;7.322;2023-11-19T10:53:01;17.60;;;4.60;;
21593;SDS011;10959;51.328;7.322;2023-11-19T10:55:29;19.33;;;4.90;;
21593;SDS011;10959;51.328;7.322;2023-11-19T10:57:58;15.13;;;4.63;;
21593;SDS011;10959;51.328;7.322;2023-11-19T11:00:28;20.77;;;5.30;;
21593;SDS011;10959;51.328;7.322;2023-11-19T11:02:59;20.43;;;5.03;;
21593;SDS011;10959;51.328;7.322;2023-11-19T11:05:28;15.87;;;4.33;;
21593;SDS011;10959;51.328;7.322;2023-11-19T11:07:58;16.80;;;4.80;;
21593;SDS011;10959;51.328;7.322;2023-11-19T11:10:26;19.17;;;4.67;;
21593;SDS011;10959;51.328;7.322;2023-11-19T11:12:52;14.17;;;4.47;;
21593;SDS011;10959;51.328;7.322;2023-11-19T11:15:24;17.50;;;4.63;;
21593;SDS011;10959;51.328;7.322;2023-11-19T11:17:53;18.47;;;4.90;;
21593;SDS011;10959;51.328;7.322;2023-11-19T11:20:25;19.30;;;5.20;;
21593;SDS011;10959;51.328;7.322;2023-11-19T11:22:56;15.97;;;4.37;;
21593;SDS011;10959;51.328;7.322;2023-11-19T11:25:34;16.90;;;4.63;;
21593;SDS011;10959;51.328;7.322;2023-11-19T11:28:14;16.80;;;4.90;;
21593;SDS011;10959;51.328;7.322;2023-11-19T11:31:00;20.07;;;4.83;;
21593;SDS011;10959;51.328;7.322;2023-11-19T11:33:41;13.87;;;4.40;;
21593;SDS011;10959;51.328;7.322;2023-11-19T11:36:22;19.50;;;3.80;;
21593;SDS011;10959;51.328;7.322;2023-11-19T11:38:51;16.23;;;4.70;;
21593;SDS011;10959;51.328;7.322;2023-11-19T11:41:20;18.63;;;4.30;;
21593;SDS011;10959;51.328;7.322;2023-11-19T11:43:47;15.67;;;4.10;;
21593;SDS011;10959;51.328;7.322;2023-11-19T11:49:24;17.77;;;4.57;;
21593;SDS011;10959;51.328;7.322;2023-11-19T11:51:57;14.20;;;3.73;;
21593;SDS011;10959;51.328;7.322;2023-11-19T11:54:29;16.93;;;4.30;;
21593;SDS011;10959;51.328;7.322;2023-11-19T11:59:46;14.77;;;4.00;;
21593;SDS011;10959;51.328;7.322;2023-11-19T12:02:14;12.27;;;4.10;;
21593;SDS011;10959;51.328;7.322;2023-11-19T12:04:42;17.00;;;4.33;;
21593;SDS011;10959;51.328;7.322;2023-11-19T12:07:11;15.90;;;4.00;;
21593;SDS011;10959;51.328;7.322;2023-11-19T12:09:40;14.47;;;4.53;;
21593;SDS011;10959;51.328;7.322;2023-11-19T12:12:07;13.73;;;4.00;;
21593;SDS011;10959;51.328;7.322;2023-11-19T12:17:36;13.17;;;3.53;;
21593;SDS011;10959;51.328;7.322;2023-11-19T12:20:05;12.93;;;4.07;;
21593;SDS011;10959;51.328;7.322;2023-11-19T12:22:33;11.93;;;3.57;;
21593;SDS011;10959;51.328;7.322;2023-11-19T12:25:02;13.50;;;3.97;;
21593;SDS011;10959;51.328;7.322;2023-11-19T12:27:31;17.50;;;4.17;;
21593;SDS011;10959;51.328;7.322;2023-11-19T12:29:58;12.57;;;3.40;;
21593;SDS011;10959;51.328;7.322;2023-11-19T12:32:25;14.07;;;4.93;;
21593;SDS011;10959;51.328;7.322;2023-11-19T12:34:51;14.63;;;4.57;;
21593;SDS011;10959;51.328;7.322;2023-11-19T12:37:18;14.30;;;3.33;;
21593;SDS011;10959;51.328;7.322;2023-11-19T12:39:46;16.03;;;4.63;;
21593;SDS011;10959;51.328;7.322;2023-11-19T12:42:13;13.90;;;3.60;;
21593;SDS011;10959;51.328;7.322;2023-11-19T12:44:52;13.10;;;3.90;;
21593;SDS011;10959;51.328;7.322;2023-11-19T12:47:21;12.07;;;2.93;;
21593;SDS011;10959;51.328;7.322;2023-11-19T12:49:54;12.47;;;3.77;;
21593;SDS011;10959;51.328;7.322;2023-11-19T12:52:22;14.80;;;4.07;;
21593;SDS011;10959;51.328;7.322;2023-11-19T12:54:48;12.83;;;3.63;;
21593;SDS011;10959;51.328;7.322;2023-11-19T12:57:17;11.00;;;3.10;;
21593;SDS011;10959;51.328;7.322;2023-11-19T12:59:54;13.60;;;3.60;;
21593;SDS011;10959;51.328;7.322;2023-11-19T13:02:21;11.50;;;3.20;;
21593;SDS011;10959;51.328;7.322;2023-11-19T13:04:48;13.53;;;3.10;;
21593;SDS011;10959;51.328;7.322;2023-11-19T13:07:20;13.47;;;3.90;;
21593;SDS011;10959;51.328;7.322;2023-11-19T13:09:47;12.33;;;3.80;;
21593;SDS011;10959;51.328;7.322;2023-11-19T13:12:13;12.70;;;3.10;;
21593;SDS011;10959;51.328;7.322;2023-11-19T13:14:43;13.70;;;3.47;;
21593;SDS011;10959;51.328;7.322;2023-11-19T13:17:12;12.83;;;4.27;;
21593;SDS011;10959;51.328;7.322;2023-11-19T13:19:39;15.77;;;3.57;;
21593;SDS011;10959;51.328;7.322;2023-11-19T13:22:06;12.57;;;3.10;;
21593;SDS011;10959;51.328;7.322;2023-11-19T13:24:33;12.00;;;3.27;;
21593;SDS011;10959;51.328;7.322;2023-11-19T13:27:00;14.33;;;3.30;;
21593;SDS011;10959;51.328;7.322;2023-11-19T13:29:26;10.63;;;3.23;;
21593;SDS011;10959;51.328;7.322;2023-11-19T13:31:54;13.30;;;4.57;;
21593;SDS011;10959;51.328;7.322;2023-11-19T13:34:21;11.60;;;3.57;;
21593;SDS011;10959;51.328;7.322;2023-11-19T13:36:47;11.33;;;3.53;;
21593;SDS011;10959;51.328;7.322;2023-11-19T13:39:14;12.30;;;2.80;;
21593;SDS011;10959;51.328;7.322;2023-11-19T13:41:47;12.30;;;3.40;;
21593;SDS011;10959;51.328;7.322;2023-11-19T13:44:15;10.63;;;3.37;;
21593;SDS011;10959;51.328;7.322;2023-11-19T13:46:41;12.57;;;3.30;;
21593;SDS011;10959;51.328;7.322;2023-11-19T13:49:12;13.60;;;3.50;;
21593;SDS011;10959;51.328;7.322;2023-11-19T13:51:38;11.30;;;2.70;;
21593;SDS011;10959;51.328;7.322;2023-11-19T13:54:05;11.23;;;3.23;;
21593;SDS011;10959;51.328;7.322;2023-11-19T13:56:31;14.60;;;3.97;;
21593;SDS011;10959;51.328;7.322;2023-11-19T13:58:58;12.77;;;3.60;;
21593;SDS011;10959;51.328;7.322;2023-11-19T14:01:25;12.70;;;3.83;;
21593;SDS011;10959;51.328;7.322;2023-11-19T14:03:52;10.20;;;3.07;;
21593;SDS011;10959;51.328;7.322;2023-11-19T14:06:20;10.30;;;3.20;;
21593;SDS011;10959;51.328;7.322;2023-11-19T14:08:46;13.70;;;3.17;;
21593;SDS011;10959;51.328;7.322;2023-11-19T14:11:13;12.10;;;3.27;;
21593;SDS011;10959;51.328;7.322;2023-11-19T14:13:39;11.57;;;3.57;;
21593;SDS011;10959;51.328;7.322;2023-11-19T14:16:06;13.97;;;3.70;;
21593;SDS011;10959;51.328;7.322;2023-11-19T14:18:34;10.20;;;3.27;;
21593;SDS011;10959;51.328;7.322;2023-11-19T14:21:01;10.80;;;3.53;;
21593;SDS011;10959;51.328;7.322;2023-11-19T14:23:29;11.90;;;3.53;;
21593;SDS011;10959;51.328;7.322;2023-11-19T14:25:56;15.40;;;3.53;;
21593;SDS011;10959;51.328;7.322;2023-11-19T14:28:22;13.07;;;3.67;;
21593;SDS011;10959;51.328;7.322;2023-11-19T14:30:50;11.90;;;3.13;;
21593;SDS011;10959;51.328;7.322;2023-11-19T14:33:21;14.67;;;3.63;;
21593;SDS011;10959;51.328;7.322;2023-11-19T14:35:48;13.77;;;3.33;;
21593;SDS011;10959;51.328;7.322;2023-11-19T14:38:14;14.83;;;4.37;;
21593;SDS011;10959;51.328;7.322;2023-11-19T14:40:42;15.40;;;3.93;;
21593;SDS011;10959;51.328;7.322;2023-11-19T14:43:09;17.07;;;4.67;;
21593;SDS011;10959;51.328;7.322;2023-11-19T14:45:36;16.17;;;4.47;;
21593;SDS011;10959;51.328;7.322;2023-11-19T14:48:02;15.27;;;4.37;;
21593;SDS011;10959;51.328;7.322;2023-11-19T14:50:29;12.47;;;4.10;;